Wetterdaten: Mittwoch, 25.07.2012
Datum Zeit Temperatur Luftfeuchte Regen Wind Richtung Richtung Taupunkt Windchill Windben
25.07.2012 00:00 15,7 C 85 % 0,0 l/m 0,0 km/h (0 Bft) O-NO 67 13,2 C 15,5 C 0,0 km/h (0 Bft)
25.07.2012 00:05 15,7 C 85 % 0,0 l/m 0,0 km/h (0 Bft) W 270 13,2 C 15,6 C 0,0 km/h (0 Bft)
25.07.2012 00:10 15,5 C 85 % 0,0 l/m 0,0 km/h (0 Bft) S 180 13,0 C 15,4 C 0,0 km/h (0 Bft)
25.07.2012 00:15 15,6 C 86 % 0,0 l/m 0,2 km/h (0 Bft) N 360 13,3 C 15,3 C 3,5 km/h (1 Bft)
25.07.2012 00:20 15,6 C 86 % 0,0 l/m 0,2 km/h (0 Bft) O-SO 112 13,3 C 15,3 C 0,0 km/h (0 Bft)
25.07.2012 00:25 15,7 C 86 % 0,0 l/m 0,2 km/h (0 Bft) N-NO 22 13,4 C 15,1 C 0,0 km/h (0 Bft)
25.07.2012 00:30 15,6 C 86 % 0,0 l/m 0,0 km/h (0 Bft) N 360 13,3 C 15,1 C 2,3 km/h (1 Bft)
25.07.2012 00:35 15,9 C 86 % 0,0 l/m 0,5 km/h (0 Bft) N 360 13,6 C 15,3 C 3,1 km/h (1 Bft)
25.07.2012 00:40 15,9 C 86 % 0,0 l/m 0,5 km/h (0 Bft) N-NO 22 13,6 C 15,4 C 0,0 km/h (0 Bft)
25.07.2012 00:45 15,9 C 86 % 0,0 l/m 0,2 km/h (0 Bft) N 360 13,6 C 15,4 C 0,0 km/h (0 Bft)
25.07.2012 00:50 15,9 C 86 % 0,0 l/m 0,2 km/h (0 Bft) N-NO 22 13,6 C 15,4 C 1,8 km/h (1 Bft)
25.07.2012 00:55 15,8 C 86 % 0,0 l/m 0,2 km/h (0 Bft) N-NO 22 13,5 C 15,4 C 0,0 km/h (0 Bft)
25.07.2012 01:00 15,7 C 86 % 0,0 l/m 0,2 km/h (0 Bft) N-NO 22 13,4 C 15,4 C 0,0 km/h (0 Bft)
25.07.2012 01:05 15,8 C 86 % 0,0 l/m 0,0 km/h (0 Bft) N-NW 337 13,5 C 15,4 C 0,0 km/h (0 Bft)
25.07.2012 01:10 15,8 C 86 % 0,0 l/m 0,2 km/h (0 Bft) N-NO 22 13,5 C 15,4 C 0,0 km/h (0 Bft)
25.07.2012 01:15 16,0 C 85 % 0,0 l/m 0,2 km/h (0 Bft) O-SO 112 13,5 C 15,5 C 1,8 km/h (1 Bft)
25.07.2012 01:20 16,0 C 85 % 0,0 l/m 0,0 km/h (0 Bft) N-NO 22 13,5 C 15,5 C 0,0 km/h (0 Bft)
25.07.2012 01:25 16,0 C 84 % 0,0 l/m 0,2 km/h (0 Bft) N 360 13,3 C 15,6 C 2,7 km/h (1 Bft)
25.07.2012 01:30 16,0 C 84 % 0,0 l/m 0,5 km/h (0 Bft) N-NO 22 13,3 C 15,6 C 2,9 km/h (1 Bft)
25.07.2012 01:35 15,9 C 85 % 0,0 l/m 0,5 km/h (0 Bft) N-NO 22 13,4 C 15,6 C 0,0 km/h (0 Bft)
25.07.2012 01:40 15,9 C 85 % 0,0 l/m 0,3 km/h (0 Bft) W-NW 292 13,4 C 15,6 C 0,0 km/h (0 Bft)
25.07.2012 01:45 15,9 C 85 % 0,0 l/m 0,0 km/h (0 Bft) N 360 13,4 C 15,6 C 0,0 km/h (0 Bft)
25.07.2012 01:50 16,0 C 84 % 0,0 l/m 0,2 km/h (0 Bft) O-NO 67 13,3 C 15,6 C 0,0 km/h (0 Bft)
25.07.2012 01:55 16,0 C 83 % 0,0 l/m 0,3 km/h (0 Bft) N 360 13,1 C 15,6 C 0,0 km/h (0 Bft)
25.07.2012 02:00 15,9 C 84 % 0,0 l/m 0,3 km/h (0 Bft) N-NO 22 13,2 C 15,6 C 2,7 km/h (1 Bft)
25.07.2012 02:05 16,0 C 83 % 0,0 l/m 0,5 km/h (0 Bft) NO 45 13,1 C 15,5 C 1,6 km/h (1 Bft)
25.07.2012 02:10 16,1 C 83 % 0,0 l/m 0,6 km/h (0 Bft) N-NO 22 13,2 C 15,6 C 3,1 km/h (1 Bft)
25.07.2012 02:15 16,3 C 82 % 0,0 l/m 0,3 km/h (0 Bft) N 360 13,2 C 15,7 C 0,0 km/h (0 Bft)
25.07.2012 02:20 15,9 C 83 % 0,0 l/m 0,2 km/h (0 Bft) S 180 13,0 C 15,7 C 0,0 km/h (0 Bft)
25.07.2012 02:25 15,4 C 83 % 0,0 l/m 0,2 km/h (0 Bft) N-NO 22 12,5 C 15,4 C 0,0 km/h (0 Bft)
25.07.2012 02:30 15,6 C 84 % 0,0 l/m 0,5 km/h (0 Bft) N 360 12,9 C 15,3 C 2,6 km/h (1 Bft)
25.07.2012 02:35 15,6 C 84 % 0,0 l/m 0,3 km/h (0 Bft) W-NW 292 12,9 C 15,3 C 0,0 km/h (0 Bft)
25.07.2012 02:40 15,0 C 84 % 0,0 l/m 0,3 km/h (0 Bft) O-SO 112 12,3 C 15,1 C 0,0 km/h (0 Bft)
25.07.2012 02:45 14,9 C 85 % 0,0 l/m 0,0 km/h (0 Bft) N-NO 22 12,4 C 14,8 C 1,6 km/h (1 Bft)
25.07.2012 02:50 15,4 C 85 % 0,0 l/m 0,2 km/h (0 Bft) NO 45 12,9 C 14,8 C 1,6 km/h (1 Bft)
25.07.2012 02:55 15,7 C 85 % 0,0 l/m 0,3 km/h (0 Bft) N-NO 22 13,2 C 15,1 C 0,0 km/h (0 Bft)
25.07.2012 03:00 15,7 C 84 % 0,0 l/m 0,3 km/h (0 Bft) NO 45 13,0 C 15,2 C 0,0 km/h (0 Bft)
25.07.2012 03:05 15,5 C 84 % 0,0 l/m 0,3 km/h (0 Bft) NO 45 12,8 C 15,3 C 0,0 km/h (0 Bft)
25.07.2012 03:10 15,6 C 84 % 0,0 l/m 0,3 km/h (0 Bft) NO 45 12,9 C 15,3 C 0,0 km/h (0 Bft)
25.07.2012 03:15 15,6 C 84 % 0,0 l/m 0,2 km/h (0 Bft) N-NO 22 12,9 C 15,3 C 0,0 km/h (0 Bft)
25.07.2012 03:20 15,2 C 83 % 0,0 l/m 0,2 km/h (0 Bft) S 180 12,3 C 15,1 C 0,0 km/h (0 Bft)
25.07.2012 03:25 15,0 C 84 % 0,0 l/m 0,0 km/h (0 Bft) N-NO 22 12,3 C 14,8 C 0,0 km/h (0 Bft)
25.07.2012 03:30 14,9 C 85 % 0,0 l/m 0,0 km/h (0 Bft) W 270 12,4 C 14,7 C 0,0 km/h (0 Bft)
25.07.2012 03:35 14,8 C 85 % 0,0 l/m 0,0 km/h (0 Bft) N-NO 22 12,3 C 14,4 C 0,0 km/h (0 Bft)
25.07.2012 03:40 15,3 C 85 % 0,0 l/m 0,0 km/h (0 Bft) N 360 12,8 C 14,5 C 0,0 km/h (0 Bft)
25.07.2012 03:45 15,7 C 85 % 0,0 l/m 0,0 km/h (0 Bft) NO 45 13,2 C 14,8 C 0,0 km/h (0 Bft)
25.07.2012 03:50 15,8 C 84 % 0,0 l/m 0,2 km/h (0 Bft) NO 45 13,1 C 14,9 C 0,0 km/h (0 Bft)
25.07.2012 03:55 15,6 C 83 % 0,0 l/m 0,2 km/h (0 Bft) S-SW 202 12,7 C 15,0 C 0,0 km/h (0 Bft)
25.07.2012 04:00 14,8 C 83 % 0,0 l/m 0,0 km/h (0 Bft) O 90 11,9 C 14,8 C 0,0 km/h (0 Bft)
25.07.2012 04:05 14,6 C 85 % 0,0 l/m 0,0 km/h (0 Bft) N 360 12,1 C 14,5 C 0,0 km/h (0 Bft)
25.07.2012 04:10 15,3 C 85 % 0,0 l/m 0,2 km/h (0 Bft) N-NO 22 12,8 C 14,4 C 1,6 km/h (1 Bft)
25.07.2012 04:15 15,2 C 84 % 0,0 l/m 0,3 km/h (0 Bft) S 180 12,5 C 14,5 C 0,0 km/h (0 Bft)
25.07.2012 04:20 14,5 C 84 % 0,0 l/m 0,2 km/h (0 Bft) SO 135 11,8 C 14,4 C 0,0 km/h (0 Bft)
25.07.2012 04:25 14,2 C 85 % 0,0 l/m 0,2 km/h (0 Bft) N-NW 337 11,7 C 14,1 C 0,0 km/h (0 Bft)
25.07.2012 04:30 14,1 C 86 % 0,0 l/m 0,2 km/h (0 Bft) N-NO 22 11,8 C 14,0 C 0,0 km/h (0 Bft)
25.07.2012 04:35 15,1 C 86 % 0,0 l/m 0,2 km/h (0 Bft) O-SO 112 12,8 C 14,1 C 0,0 km/h (0 Bft)
25.07.2012 04:40 15,2 C 86 % 0,0 l/m 0,2 km/h (0 Bft) N-NO 22 12,9 C 14,3 C 0,0 km/h (0 Bft)
25.07.2012 04:45 15,3 C 85 % 0,0 l/m 0,2 km/h (0 Bft) N 360 12,8 C 14,3 C 0,0 km/h (0 Bft)
25.07.2012 04:50 15,1 C 85 % 0,0 l/m 0,3 km/h (0 Bft) W-SW 247 12,6 C 14,4 C 0,0 km/h (0 Bft)
25.07.2012 04:55 14,2 C 85 % 0,0 l/m 0,2 km/h (0 Bft) W-SW 247 11,7 C 14,1 C 0,0 km/h (0 Bft)
25.07.2012 05:00 14,0 C 85 % 0,0 l/m 0,0 km/h (0 Bft) S-SO 157 11,5 C 13,8 C 0,0 km/h (0 Bft)
25.07.2012 05:05 13,8 C 86 % 0,0 l/m 0,0 km/h (0 Bft) N 360 11,5 C 13,6 C 0,0 km/h (0 Bft)
25.07.2012 05:10 14,2 C 87 % 0,0 l/m 0,2 km/h (0 Bft) NO 45 12,1 C 13,5 C 0,0 km/h (0 Bft)
25.07.2012 05:15 14,8 C 87 % 0,0 l/m 0,5 km/h (0 Bft) N 360 12,7 C 13,8 C 0,0 km/h (0 Bft)
25.07.2012 05:20 14,8 C 87 % 0,0 l/m 0,3 km/h (0 Bft) NO 45 12,7 C 13,8 C 0,0 km/h (0 Bft)
25.07.2012 05:25 15,0 C 86 % 0,0 l/m 0,2 km/h (0 Bft) NO 45 12,7 C 14,0 C 0,0 km/h (0 Bft)
25.07.2012 05:30 14,7 C 86 % 0,0 l/m 0,0 km/h (0 Bft) S-SW 202 12,4 C 14,1 C 0,0 km/h (0 Bft)
25.07.2012 05:35 13,9 C 86 % 0,0 l/m 0,0 km/h (0 Bft) W-SW 247 11,6 C 13,8 C 0,0 km/h (0 Bft)
25.07.2012 05:40 13,8 C 86 % 0,0 l/m 0,0 km/h (0 Bft) SO 135 11,5 C 13,6 C 0,0 km/h (0 Bft)
25.07.2012 05:45 14,1 C 87 % 0,0 l/m 0,0 km/h (0 Bft) O 90 12,0 C 13,6 C 0,0 km/h (0 Bft)
25.07.2012 05:50 14,1 C 87 % 0,0 l/m 0,0 km/h (0 Bft) NO 45 12,0 C 13,6 C 0,0 km/h (0 Bft)
25.07.2012 05:55 14,3 C 87 % 0,0 l/m 0,0 km/h (0 Bft) W-NW 292 12,2 C 13,7 C 0,0 km/h (0 Bft)
25.07.2012 06:00 14,0 C 87 % 0,0 l/m 0,0 km/h (0 Bft) N 360 11,9 C 13,7 C 0,0 km/h (0 Bft)
25.07.2012 06:05 13,9 C 87 % 0,0 l/m 0,0 km/h (0 Bft) O-SO 112 11,8 C 13,8 C 0,0 km/h (0 Bft)
25.07.2012 06:10 14,0 C 87 % 0,0 l/m 0,0 km/h (0 Bft) O-NO 67 11,9 C 13,7 C 0,0 km/h (0 Bft)
25.07.2012 06:15 14,9 C 88 % 0,0 l/m 0,3 km/h (0 Bft) N-NO 22 12,9 C 13,9 C 0,0 km/h (0 Bft)
25.07.2012 06:20 15,3 C 87 % 0,0 l/m 0,3 km/h (0 Bft) N-NO 22 13,1 C 14,2 C 0,0 km/h (0 Bft)
25.07.2012 06:25 14,9 C 86 % 0,0 l/m 0,2 km/h (0 Bft) W-NW 292 12,6 C 14,6 C 0,0 km/h (0 Bft)
25.07.2012 06:30 14,3 C 85 % 0,0 l/m 0,0 km/h (0 Bft) W 270 11,8 C 14,4 C 0,0 km/h (0 Bft)
25.07.2012 06:35 14,2 C 86 % 0,0 l/m 0,0 km/h (0 Bft) S 180 11,9 C 14,3 C 0,0 km/h (0 Bft)
25.07.2012 06:40 14,2 C 86 % 0,0 l/m 0,0 km/h (0 Bft) SO 135 11,9 C 14,3 C 0,0 km/h (0 Bft)
25.07.2012 06:45 14,3 C 86 % 0,0 l/m 0,2 km/h (0 Bft) O 90 12,0 C 14,3 C 0,0 km/h (0 Bft)
25.07.2012 06:50 14,5 C 86 % 0,0 l/m 0,2 km/h (0 Bft) S-SO 157 12,2 C 14,3 C 0,0 km/h (0 Bft)
25.07.2012 06:55 14,4 C 86 % 0,0 l/m 0,0 km/h (0 Bft) W-SW 247 12,1 C 14,4 C 0,0 km/h (0 Bft)
25.07.2012 07:00 14,4 C 86 % 0,0 l/m 0,0 km/h (0 Bft) W 270 12,1 C 14,4 C 0,0 km/h (0 Bft)
25.07.2012 07:05 14,6 C 86 % 0,0 l/m 0,0 km/h (0 Bft) NW 315 12,3 C 14,4 C 0,0 km/h (0 Bft)
25.07.2012 07:10 14,7 C 86 % 0,0 l/m 0,3 km/h (0 Bft) W-SW 247 12,4 C 14,5 C 3,4 km/h (1 Bft)
25.07.2012 07:15 15,0 C 86 % 0,0 l/m 0,6 km/h (0 Bft) W-NW 292 12,7 C 14,9 C 0,0 km/h (0 Bft)
25.07.2012 07:20 15,2 C 86 % 0,0 l/m 0,5 km/h (0 Bft) N-NO 22 12,9 C 15,1 C 0,0 km/h (0 Bft)
25.07.2012 07:25 15,7 C 86 % 0,0 l/m 0,0 km/h (0 Bft) O-SO 112 13,4 C 15,5 C 0,0 km/h (0 Bft)
25.07.2012 07:30 15,8 C 86 % 0,0 l/m 0,0 km/h (0 Bft) N 360 13,5 C 15,7 C 0,0 km/h (0 Bft)
25.07.2012 07:35 15,8 C 86 % 0,0 l/m 0,0 km/h (0 Bft) N 360 13,5 C 15,9 C 0,0 km/h (0 Bft)
25.07.2012 07:40 15,9 C 86 % 0,0 l/m 0,0 km/h (0 Bft) N-NW 337 13,6 C 15,9 C 0,0 km/h (0 Bft)
25.07.2012 07:45 15,8 C 86 % 0,0 l/m 0,0 km/h (0 Bft) S-SO 157 13,5 C 15,9 C 0,0 km/h (0 Bft)
25.07.2012 07:50 15,6 C 85 % 0,0 l/m 0,0 km/h (0 Bft) SO 135 13,1 C 15,9 C 0,0 km/h (0 Bft)
25.07.2012 07:55 15,6 C 85 % 0,0 l/m 0,0 km/h (0 Bft) NO 45 13,1 C 15,7 C 0,0 km/h (0 Bft)
25.07.2012 08:00 15,7 C 86 % 0,0 l/m 0,0 km/h (0 Bft) S 180 13,4 C 15,7 C 0,0 km/h (0 Bft)
25.07.2012 08:05 15,8 C 86 % 0,0 l/m 0,0 km/h (0 Bft) NO 45 13,5 C 15,9 C 0,0 km/h (0 Bft)
25.07.2012 08:10 16,2 C 85 % 0,0 l/m 0,0 km/h (0 Bft) N-NO 22 13,7 C 16,1 C 0,0 km/h (0 Bft)
25.07.2012 08:15 16,8 C 85 % 0,0 l/m 0,0 km/h (0 Bft) SO 135 14,3 C 16,5 C 1,8 km/h (1 Bft)
25.07.2012 08:20 17,2 C 84 % 0,0 l/m 0,2 km/h (0 Bft) SW 225 14,5 C 17,0 C 1,8 km/h (1 Bft)
25.07.2012 08:25 17,4 C 83 % 0,0 l/m 0,2 km/h (0 Bft) S-SO 157 14,5 C 17,6 C 0,0 km/h (0 Bft)
25.07.2012 08:30 17,6 C 83 % 0,0 l/m 0,2 km/h (0 Bft) O 90 14,7 C 18,0 C 0,0 km/h (0 Bft)
25.07.2012 08:35 17,8 C 83 % 0,0 l/m 0,0 km/h (0 Bft) NO 45 14,9 C 18,4 C 0,0 km/h (0 Bft)
25.07.2012 08:40 18,1 C 83 % 0,0 l/m 0,0 km/h (0 Bft) SO 135 15,3 C 18,6 C 0,0 km/h (0 Bft)
25.07.2012 08:45 18,4 C 83 % 0,0 l/m 0,0 km/h (0 Bft) W 270 15,5 C 19,0 C 0,0 km/h (0 Bft)
25.07.2012 08:50 18,4 C 83 % 0,0 l/m 0,6 km/h (0 Bft) W-NW 292 15,5 C 19,0 C 2,1 km/h (1 Bft)
25.07.2012 08:55 18,7 C 81 % 0,0 l/m 0,8 km/h (0 Bft) NO 45 15,4 C 19,2 C 0,0 km/h (0 Bft)
25.07.2012 09:00 19,0 C 80 % 0,0 l/m 0,3 km/h (0 Bft) O-SO 112 15,7 C 19,6 C 0,0 km/h (0 Bft)
25.07.2012 09:05 19,7 C 79 % 0,0 l/m 0,0 km/h (0 Bft) SO 135 16,7 C 20,6 C 0,0 km/h (0 Bft)
25.07.2012 09:10 20,2 C 75 % 0,0 l/m 0,3 km/h (0 Bft) SO 135 17,3 C 22,1 C 5,6 km/h (1 Bft)
25.07.2012 09:15 20,5 C 69 % 0,0 l/m 2,1 km/h (1 Bft) SO 135 15,4 C 22,7 C 10,9 km/h (2 Bft)
25.07.2012 09:20 20,7 C 70 % 0,0 l/m 3,9 km/h (1 Bft) SO 135 15,7 C 22,5 C 4,8 km/h (1 Bft)
25.07.2012 09:25 20,8 C 69 % 0,0 l/m 4,5 km/h (1 Bft) S 180 15,9 C 22,4 C 3,2 km/h (1 Bft)
25.07.2012 09:30 21,1 C 67 % 0,0 l/m 4,5 km/h (1 Bft) SO 135 15,7 C 22,6 C 6,0 km/h (2 Bft)
25.07.2012 09:35 21,2 C 68 % 0,0 l/m 3,9 km/h (1 Bft) S-SO 157 15,5 C 22,7 C 4,5 km/h (1 Bft)
25.07.2012 09:40 21,3 C 69 % 0,0 l/m 3,4 km/h (1 Bft) S-SO 157 15,7 C 22,6 C 1,8 km/h (1 Bft)
25.07.2012 09:45 21,5 C 69 % 0,0 l/m 2,1 km/h (1 Bft) S 180 15,7 C 22,6 C 2,4 km/h (1 Bft)
25.07.2012 09:50 21,5 C 69 % 0,0 l/m 1,9 km/h (1 Bft) S-SW 202 15,7 C 22,6 C 3,5 km/h (1 Bft)
25.07.2012 09:55 21,6 C 69 % 0,0 l/m 2,9 km/h (1 Bft) O-SO 112 15,8 C 22,6 C 4,2 km/h (1 Bft)
25.07.2012 10:00 21,7 C 69 % 0,0 l/m 2,9 km/h (1 Bft) S-SO 157 15,9 C 22,6 C 2,1 km/h (1 Bft)
25.07.2012 10:05 21,4 C 69 % 0,0 l/m 2,7 km/h (1 Bft) S 180 15,5 C 22,6 C 4,3 km/h (1 Bft)
25.07.2012 10:10 21,2 C 69 % 0,0 l/m 3,1 km/h (1 Bft) S-SW 202 15,3 C 22,2 C 5,8 km/h (2 Bft)
25.07.2012 10:15 20,8 C 69 % 0,0 l/m 4,8 km/h (1 Bft) S 180 14,9 C 21,8 C 9,8 km/h (2 Bft)
25.07.2012 10:20 20,8 C 70 % 0,0 l/m 5,3 km/h (1 Bft) W-NW 292 15,1 C 21,5 C 5,0 km/h (1 Bft)
25.07.2012 10:25 21,3 C 69 % 0,0 l/m 3,4 km/h (1 Bft) O 90 15,4 C 21,8 C 0,0 km/h (0 Bft)
25.07.2012 10:30 21,5 C 69 % 0,0 l/m 1,8 km/h (1 Bft) O-SO 112 15,6 C 22,3 C 4,5 km/h (1 Bft)
25.07.2012 10:35 21,5 C 68 % 0,0 l/m 2,9 km/h (1 Bft) SO 135 15,3 C 22,4 C 4,3 km/h (1 Bft)
25.07.2012 10:40 21,9 C 68 % 0,0 l/m 4,0 km/h (1 Bft) S 180 15,8 C 22,4 C 3,7 km/h (1 Bft)
25.07.2012 10:45 22,6 C 66 % 0,0 l/m 3,9 km/h (1 Bft) S-SO 157 16,6 C 23,3 C 2,9 km/h (1 Bft)
25.07.2012 10:50 22,8 C 66 % 0,0 l/m 3,7 km/h (1 Bft) S 180 16,3 C 23,7 C 4,8 km/h (1 Bft)
25.07.2012 10:55 22,5 C 66 % 0,0 l/m 3,4 km/h (1 Bft) SO 135 15,8 C 23,6 C 4,5 km/h (1 Bft)
25.07.2012 11:00 22,6 C 67 % 0,0 l/m 3,7 km/h (1 Bft) SO 135 16,2 C 23,4 C 4,2 km/h (1 Bft)
25.07.2012 11:05 22,1 C 67 % 0,0 l/m 3,5 km/h (1 Bft) S 180 15,7 C 23,1 C 4,7 km/h (1 Bft)
25.07.2012 11:10 21,8 C 68 % 0,0 l/m 4,5 km/h (1 Bft) O-SO 112 15,6 C 22,9 C 9,0 km/h (2 Bft)
25.07.2012 11:15 22,2 C 68 % 0,0 l/m 5,6 km/h (1 Bft) SO 135 16,0 C 22,6 C 8,0 km/h (2 Bft)
25.07.2012 11:20 22,6 C 68 % 0,0 l/m 5,5 km/h (1 Bft) NO 45 16,4 C 22,8 C 6,6 km/h (2 Bft)
25.07.2012 11:25 22,4 C 66 % 0,0 l/m 5,1 km/h (1 Bft) SW 225 15,7 C 23,0 C 5,5 km/h (1 Bft)
25.07.2012 11:30 22,1 C 66 % 0,0 l/m 4,8 km/h (1 Bft) SO 135 15,4 C 22,9 C 7,4 km/h (2 Bft)
25.07.2012 11:35 21,4 C 68 % 0,0 l/m 4,8 km/h (1 Bft) S 180 15,2 C 22,4 C 7,6 km/h (2 Bft)
25.07.2012 11:40 21,5 C 69 % 0,0 l/m 4,3 km/h (1 Bft) SO 135 15,6 C 22,2 C 2,7 km/h (1 Bft)
25.07.2012 11:45 21,7 C 69 % 0,0 l/m 3,2 km/h (1 Bft) O-SO 112 15,8 C 22,2 C 2,1 km/h (1 Bft)
25.07.2012 11:50 22,0 C 69 % 0,0 l/m 2,4 km/h (1 Bft) O-SO 112 16,0 C 22,4 C 3,2 km/h (1 Bft)
25.07.2012 11:55 22,3 C 69 % 0,0 l/m 1,4 km/h (1 Bft) O-SO 112 16,3 C 23,0 C 5,1 km/h (1 Bft)
25.07.2012 12:00 22,4 C 69 % 0,0 l/m 2,3 km/h (1 Bft) O 90 16,4 C 23,3 C 2,6 km/h (1 Bft)
25.07.2012 12:05 22,5 C 68 % 0,0 l/m 3,9 km/h (1 Bft) SO 135 16,3 C 23,4 C 3,7 km/h (1 Bft)
25.07.2012 12:10 22,8 C 69 % 0,0 l/m 3,7 km/h (1 Bft) SO 135 16,8 C 23,6 C 3,5 km/h (1 Bft)
25.07.2012 12:15 23,3 C 67 % 0,0 l/m 3,1 km/h (1 Bft) SO 135 16,8 C 23,9 C 3,5 km/h (1 Bft)
25.07.2012 12:20 23,3 C 65 % 0,0 l/m 3,7 km/h (1 Bft) O-SO 112 16,3 C 24,0 C 5,8 km/h (2 Bft)
25.07.2012 12:25 23,1 C 64 % 0,0 l/m 4,3 km/h (1 Bft) S-SW 202 15,9 C 24,2 C 3,9 km/h (1 Bft)
25.07.2012 12:30 22,9 C 66 % 0,0 l/m 4,5 km/h (1 Bft) S 180 16,2 C 24,0 C 7,1 km/h (2 Bft)
25.07.2012 12:35 22,6 C 66 % 0,0 l/m 5,1 km/h (1 Bft) S 180 15,9 C 23,8 C 6,4 km/h (2 Bft)
25.07.2012 12:40 22,5 C 67 % 0,0 l/m 4,5 km/h (1 Bft) O-SO 112 16,1 C 23,6 C 2,6 km/h (1 Bft)
25.07.2012 12:45 22,4 C 68 % 0,0 l/m 3,5 km/h (1 Bft) SO 135 16,2 C 23,4 C 3,1 km/h (1 Bft)
25.07.2012 12:50 22,3 C 68 % 0,0 l/m 3,4 km/h (1 Bft) S-SW 202 16,1 C 23,3 C 5,6 km/h (1 Bft)
25.07.2012 12:55 22,4 C 68 % 0,0 l/m 2,6 km/h (1 Bft) S-SO 157 16,2 C 23,2 C 0,0 km/h (0 Bft)
25.07.2012 13:00 22,5 C 68 % 0,0 l/m 3,1 km/h (1 Bft) S 180 16,3 C 23,3 C 3,1 km/h (1 Bft)
25.07.2012 13:05 22,4 C 68 % 0,0 l/m 2,9 km/h (1 Bft) SO 135 16,2 C 23,4 C 4,3 km/h (1 Bft)
25.07.2012 13:10 22,4 C 68 % 0,0 l/m 3,4 km/h (1 Bft) W-SW 247 16,2 C 23,4 C 3,9 km/h (1 Bft)
25.07.2012 13:15 22,4 C 68 % 0,0 l/m 3,9 km/h (1 Bft) SO 135 16,2 C 23,2 C 3,2 km/h (1 Bft)
25.07.2012 13:20 22,4 C 69 % 0,0 l/m 3,2 km/h (1 Bft) W-SW 247 16,4 C 23,4 C 3,9 km/h (1 Bft)
25.07.2012 13:25 22,2 C 69 % 0,0 l/m 3,4 km/h (1 Bft) S-SW 202 16,2 C 23,2 C 5,8 km/h (2 Bft)
25.07.2012 13:30 22,0 C 69 % 0,0 l/m 3,5 km/h (1 Bft) W 270 16,0 C 23,1 C 7,6 km/h (2 Bft)
25.07.2012 13:35 21,5 C 71 % 0,0 l/m 3,1 km/h (1 Bft) W-NW 292 16,0 C 22,6 C 0,0 km/h (0 Bft)
25.07.2012 13:40 21,3 C 73 % 0,0 l/m 3,1 km/h (1 Bft) W 270 16,3 C 22,4 C 5,3 km/h (1 Bft)
25.07.2012 13:45 20,8 C 76 % 0,0 l/m 1,9 km/h (1 Bft) W-NW 292 16,4 C 22,0 C 2,1 km/h (1 Bft)
25.07.2012 13:50 20,8 C 76 % 0,0 l/m 1,9 km/h (1 Bft) SO 135 16,4 C 21,7 C 0,0 km/h (0 Bft)
25.07.2012 13:55 20,7 C 76 % 0,0 l/m 2,4 km/h (1 Bft) N 360 16,3 C 21,2 C 5,3 km/h (1 Bft)
25.07.2012 14:00 20,6 C 76 % 0,0 l/m 2,7 km/h (1 Bft) W 270 16,2 C 21,1 C 4,5 km/h (1 Bft)
25.07.2012 14:05 20,7 C 76 % 0,0 l/m 3,7 km/h (1 Bft) W-NW 292 16,3 C 21,1 C 4,5 km/h (1 Bft)
25.07.2012 14:10 20,4 C 77 % 0,0 l/m 3,9 km/h (1 Bft) W-SW 247 16,2 C 21,0 C 5,0 km/h (1 Bft)
25.07.2012 14:15 20,2 C 77 % 0,0 l/m 3,5 km/h (1 Bft) W-NW 292 16,0 C 20,8 C 4,5 km/h (1 Bft)
25.07.2012 14:20 20,3 C 78 % 0,0 l/m 3,1 km/h (1 Bft) W-NW 292 16,3 C 20,9 C 3,5 km/h (1 Bft)
25.07.2012 14:25 21,0 C 77 % 0,0 l/m 2,7 km/h (1 Bft) W-NW 292 16,8 C 21,2 C 9,3 km/h (2 Bft)
25.07.2012 14:30 21,3 C 75 % 0,0 l/m 3,4 km/h (1 Bft) W 270 16,7 C 21,6 C 4,2 km/h (1 Bft)
25.07.2012 14:35 21,6 C 73 % 0,0 l/m 3,9 km/h (1 Bft) W-NW 292 16,5 C 22,2 C 1,8 km/h (1 Bft)
25.07.2012 14:40 21,9 C 74 % 0,0 l/m 2,7 km/h (1 Bft) N-NO 22 17,0 C 22,9 C 0,0 km/h (0 Bft)
25.07.2012 14:45 22,2 C 72 % 0,0 l/m 2,3 km/h (1 Bft) O-NO 67 16,9 C 23,3 C 0,0 km/h (0 Bft)
25.07.2012 14:50 22,2 C 72 % 0,0 l/m 2,1 km/h (1 Bft) N 360 16,9 C 23,7 C 0,0 km/h (0 Bft)
25.07.2012 14:55 22,6 C 70 % 0,0 l/m 1,6 km/h (1 Bft) W-SW 247 16,8 C 24,1 C 4,5 km/h (1 Bft)
25.07.2012 15:00 22,3 C 69 % 0,0 l/m 2,4 km/h (1 Bft) SW 225 16,3 C 23,9 C 1,9 km/h (1 Bft)
25.07.2012 15:05 22,3 C 71 % 0,0 l/m 2,4 km/h (1 Bft) W-SW 247 16,8 C 24,0 C 4,8 km/h (1 Bft)
25.07.2012 15:10 22,1 C 71 % 0,0 l/m 2,3 km/h (1 Bft) S-SW 202 16,6 C 23,7 C 2,6 km/h (1 Bft)
25.07.2012 15:15 22,0 C 71 % 0,0 l/m 2,1 km/h (1 Bft) W 270 16,5 C 23,6 C 1,6 km/h (1 Bft)
25.07.2012 15:20 22,4 C 71 % 0,0 l/m 1,3 km/h (1 Bft) S-SW 202 16,9 C 23,8 C 2,9 km/h (1 Bft)
25.07.2012 15:25 22,4 C 71 % 0,0 l/m 1,9 km/h (1 Bft) W-NW 292 16,9 C 23,8 C 3,4 km/h (1 Bft)
25.07.2012 15:30 22,2 C 71 % 0,0 l/m 2,4 km/h (1 Bft) S 180 16,7 C 23,8 C 2,6 km/h (1 Bft)
25.07.2012 15:35 21,9 C 72 % 0,0 l/m 2,7 km/h (1 Bft) O-SO 112 16,6 C 23,4 C 4,0 km/h (1 Bft)
25.07.2012 15:40 21,9 C 73 % 0,0 l/m 2,7 km/h (1 Bft) O-SO 112 16,8 C 23,1 C 1,6 km/h (1 Bft)
25.07.2012 15:45 21,6 C 73 % 0,0 l/m 2,1 km/h (1 Bft) O-SO 112 16,5 C 22,7 C 2,3 km/h (1 Bft)
25.07.2012 15:50 21,6 C 73 % 0,0 l/m 1,9 km/h (1 Bft) SO 135 16,5 C 22,5 C 3,2 km/h (1 Bft)
25.07.2012 15:55 21,5 C 74 % 0,0 l/m 1,1 km/h (1 Bft) O 90 16,7 C 22,3 C 0,0 km/h (0 Bft)
25.07.2012 16:00 21,4 C 74 % 0,0 l/m 0,6 km/h (0 Bft) SO 135 16,6 C 22,2 C 0,0 km/h (0 Bft)
25.07.2012 16:05 21,4 C 75 % 0,0 l/m 0,3 km/h (0 Bft) S-SO 157 16,8 C 22,0 C 0,0 km/h (0 Bft)
25.07.2012 16:10 21,5 C 74 % 0,0 l/m 0,2 km/h (0 Bft) S-SO 157 16,7 C 22,1 C 2,7 km/h (1 Bft)
25.07.2012 16:15 21,4 C 74 % 0,0 l/m 1,3 km/h (1 Bft) W-NW 292 16,6 C 22,2 C 2,7 km/h (1 Bft)
25.07.2012 16:20 21,3 C 74 % 0,0 l/m 1,8 km/h (1 Bft) W 270 16,5 C 22,0 C 0,0 km/h (0 Bft)
25.07.2012 16:25 21,1 C 75 % 0,0 l/m 2,3 km/h (1 Bft) W-NW 292 16,5 C 22,0 C 3,4 km/h (1 Bft)
25.07.2012 16:30 20,9 C 76 % 0,0 l/m 2,4 km/h (1 Bft) W-SW 247 16,5 C 21,8 C 3,9 km/h (1 Bft)
25.07.2012 16:35 21,0 C 76 % 0,0 l/m 2,3 km/h (1 Bft) W-SW 247 16,6 C 21,4 C 0,0 km/h (0 Bft)
25.07.2012 16:40 20,9 C 76 % 0,0 l/m 2,4 km/h (1 Bft) W 270 16,5 C 21,2 C 2,6 km/h (1 Bft)
25.07.2012 16:45 20,6 C 77 % 0,0 l/m 2,6 km/h (1 Bft) S 180 16,4 C 21,0 C 3,4 km/h (1 Bft)
25.07.2012 16:50 20,6 C 78 % 0,0 l/m 2,4 km/h (1 Bft) SW 225 16,6 C 21,0 C 4,5 km/h (1 Bft)
25.07.2012 16:55 20,6 C 77 % 0,0 l/m 2,9 km/h (1 Bft) S 180 16,4 C 20,6 C 2,4 km/h (1 Bft)
25.07.2012 17:00 20,6 C 77 % 0,0 l/m 3,1 km/h (1 Bft) W-NW 292 16,4 C 20,4 C 2,7 km/h (1 Bft)
25.07.2012 17:05 20,4 C 78 % 0,0 l/m 2,4 km/h (1 Bft) S-SW 202 16,4 C 20,3 C 3,2 km/h (1 Bft)
25.07.2012 17:10 20,1 C 79 % 0,0 l/m 2,4 km/h (1 Bft) S-SW 202 16,3 C 20,0 C 3,9 km/h (1 Bft)
25.07.2012 17:15 19,7 C 78 % 0,0 l/m 2,1 km/h (1 Bft) W-SW 247 15,8 C 19,4 C 2,3 km/h (1 Bft)
25.07.2012 17:20 19,6 C 79 % 0,0 l/m 1,3 km/h (1 Bft) W-SW 247 15,9 C 19,0 C 0,0 km/h (0 Bft)
25.07.2012 17:25 18,7 C 81 % 0,0 l/m 0,5 km/h (0 Bft) N-NO 22 15,4 C 18,6 C 1,8 km/h (1 Bft)
25.07.2012 17:30 18,5 C 82 % 0,0 l/m 0,3 km/h (0 Bft) N-NO 22 15,4 C 18,4 C 0,0 km/h (0 Bft)
25.07.2012 17:35 18,2 C 84 % 0,0 l/m 0,2 km/h (0 Bft) O-NO 67 15,4 C 18,1 C 0,0 km/h (0 Bft)
25.07.2012 17:40 18,2 C 84 % 0,0 l/m 0,2 km/h (0 Bft) W-NW 292 15,4 C 18,1 C 0,0 km/h (0 Bft)
25.07.2012 17:45 18,5 C 84 % 0,0 l/m 0,5 km/h (0 Bft) N-NO 22 15,7 C 18,0 C 0,0 km/h (0 Bft)
25.07.2012 17:50 18,3 C 83 % 0,0 l/m 0,6 km/h (0 Bft) N-NO 22 15,4 C 17,9 C 1,6 km/h (1 Bft)
25.07.2012 17:55 17,9 C 86 % 0,0 l/m 0,3 km/h (0 Bft) NO 45 15,5 C 17,8 C 0,0 km/h (0 Bft)
25.07.2012 18:00 18,0 C 87 % 0,0 l/m 0,3 km/h (0 Bft) O-SO 112 15,8 C 17,9 C 0,0 km/h (0 Bft)
25.07.2012 18:05 18,2 C 87 % 0,0 l/m 0,0 km/h (0 Bft) S-SO 157 16,0 C 18,0 C 0,0 km/h (0 Bft)
25.07.2012 18:10 18,1 C 87 % 0,0 l/m 0,2 km/h (0 Bft) N-NO 22 15,9 C 18,0 C 0,0 km/h (0 Bft)
25.07.2012 18:15 17,9 C 87 % 0,0 l/m 0,2 km/h (0 Bft) N-NO 22 15,7 C 17,9 C 0,0 km/h (0 Bft)
25.07.2012 18:20 17,8 C 86 % 0,0 l/m 0,3 km/h (0 Bft) O-NO 67 15,4 C 17,8 C 0,0 km/h (0 Bft)
25.07.2012 18:25 17,6 C 86 % 0,0 l/m 0,2 km/h (0 Bft) N 360 15,2 C 17,7 C 0,0 km/h (0 Bft)
25.07.2012 18:30 17,5 C 86 % 0,0 l/m 0,2 km/h (0 Bft) N-NO 22 15,1 C 17,6 C 0,0 km/h (0 Bft)
25.07.2012 18:35 16,9 C 87 % 0,0 l/m 0,5 km/h (0 Bft) N 360 14,7 C 17,3 C 1,9 km/h (1 Bft)
25.07.2012 18:40 16,8 C 87 % 0,0 l/m 0,3 km/h (0 Bft) N-NO 22 14,6 C 17,1 C 0,0 km/h (0 Bft)
25.07.2012 18:45 16,9 C 88 % 0,0 l/m 0,2 km/h (0 Bft) N-NO 22 14,9 C 16,8 C 0,0 km/h (0 Bft)
25.07.2012 18:50 17,0 C 88 % 0,0 l/m 0,3 km/h (0 Bft) N 360 15,0 C 16,8 C 0,0 km/h (0 Bft)
25.07.2012 18:55 17,0 C 89 % 0,0 l/m 0,3 km/h (0 Bft) NO 45 15,2 C 16,9 C 0,0 km/h (0 Bft)
25.07.2012 19:00 16,9 C 89 % 0,0 l/m 0,0 km/h (0 Bft) N-NO 22 15,1 C 16,9 C 0,0 km/h (0 Bft)
25.07.2012 19:05 16,7 C 89 % 0,0 l/m 0,3 km/h (0 Bft) NO 45 14,9 C 16,7 C 2,3 km/h (1 Bft)
25.07.2012 19:10 16,5 C 89 % 0,0 l/m 0,3 km/h (0 Bft) N-NO 22 14,7 C 16,5 C 0,0 km/h (0 Bft)
25.07.2012 19:15 16,2 C 89 % 0,0 l/m 0,2 km/h (0 Bft) N 360 14,4 C 16,3 C 0,0 km/h (0 Bft)
25.07.2012 19:20 16,3 C 89 % 0,0 l/m 0,2 km/h (0 Bft) N-NO 22 14,5 C 16,1 C 0,0 km/h (0 Bft)
25.07.2012 19:25 16,2 C 89 % 0,0 l/m 0,5 km/h (0 Bft) N-NO 22 14,4 C 16,1 C 0,0 km/h (0 Bft)
25.07.2012 19:30 16,2 C 89 % 0,0 l/m 0,3 km/h (0 Bft) N-NW 337 14,4 C 16,1 C 0,0 km/h (0 Bft)
25.07.2012 19:35 16,1 C 89 % 0,0 l/m 0,2 km/h (0 Bft) SW 225 14,3 C 16,0 C 0,0 km/h (0 Bft)
25.07.2012 19:40 16,1 C 90 % 0,0 l/m 0,2 km/h (0 Bft) N-NW 337 14,5 C 16,0 C 0,0 km/h (0 Bft)
25.07.2012 19:45 15,9 C 90 % 0,0 l/m 0,2 km/h (0 Bft) N-NO 22 14,3 C 15,9 C 0,0 km/h (0 Bft)
25.07.2012 19:50 15,6 C 90 % 0,0 l/m 0,2 km/h (0 Bft) N-NW 337 14,0 C 15,7 C 0,0 km/h (0 Bft)
25.07.2012 19:55 15,5 C 89 % 0,0 l/m 0,2 km/h (0 Bft) O-SO 112 13,7 C 15,5 C 0,0 km/h (0 Bft)
25.07.2012 20:00 15,4 C 89 % 0,0 l/m 0,5 km/h (0 Bft) O-SO 112 13,6 C 15,4 C 0,0 km/h (0 Bft)
25.07.2012 20:05 15,4 C 89 % 0,0 l/m 0,2 km/h (0 Bft) N-NW 337 13,6 C 15,3 C 0,0 km/h (0 Bft)
25.07.2012 20:10 15,4 C 90 % 0,0 l/m 0,2 km/h (0 Bft) N-NO 22 13,8 C 15,2 C 0,0 km/h (0 Bft)
25.07.2012 20:15 15,3 C 90 % 0,7 l/m 0,3 km/h (0 Bft) N 360 13,7 C 15,1 C 0,0 km/h (0 Bft)
25.07.2012 20:20 15,3 C 90 % 0,0 l/m 0,2 km/h (0 Bft) N 360 13,7 C 15,1 C 0,0 km/h (0 Bft)
25.07.2012 20:25 15,2 C 91 % 0,0 l/m 0,2 km/h (0 Bft) N-NW 337 13,7 C 15,0 C 1,8 km/h (1 Bft)
25.07.2012 20:30 15,2 C 91 % 0,0 l/m 0,2 km/h (0 Bft) S-SW 202 13,7 C 15,0 C 0,0 km/h (0 Bft)
25.07.2012 20:35 15,2 C 91 % 0,0 l/m 0,2 km/h (0 Bft) NO 45 13,7 C 15,0 C 0,0 km/h (0 Bft)
25.07.2012 20:40 15,1 C 91 % 0,0 l/m 0,0 km/h (0 Bft) N 360 13,6 C 15,0 C 0,0 km/h (0 Bft)
25.07.2012 20:45 15,1 C 91 % 0,0 l/m 0,0 km/h (0 Bft) N 360 13,6 C 15,0 C 0,0 km/h (0 Bft)
25.07.2012 20:50 15,1 C 91 % 0,0 l/m 0,0 km/h (0 Bft) NO 45 13,6 C 14,9 C 0,0 km/h (0 Bft)
25.07.2012 20:55 15,1 C 91 % 0,0 l/m 0,0 km/h (0 Bft) W-NW 292 13,6 C 14,9 C 0,0 km/h (0 Bft)
25.07.2012 21:00 15,1 C 91 % 0,0 l/m 0,0 km/h (0 Bft) S-SW 202 13,6 C 14,9 C 0,0 km/h (0 Bft)
25.07.2012 21:05 15,1 C 91 % 0,0 l/m 0,2 km/h (0 Bft) N-NO 22 13,6 C 14,9 C 0,0 km/h (0 Bft)
25.07.2012 21:10 15,1 C 91 % 0,0 l/m 0,2 km/h (0 Bft) N-NO 22 13,6 C 14,9 C 0,0 km/h (0 Bft)
25.07.2012 21:15 15,1 C 91 % 0,0 l/m 0,2 km/h (0 Bft) O-SO 112 13,6 C 14,9 C 1,8 km/h (1 Bft)
25.07.2012 21:20 15,1 C 91 % 0,0 l/m 0,3 km/h (0 Bft) N 360 13,6 C 15,0 C 1,9 km/h (1 Bft)
25.07.2012 21:25 15,0 C 91 % 0,0 l/m 0,3 km/h (0 Bft) W 270 13,5 C 15,0 C 0,0 km/h (0 Bft)
25.07.2012 21:30 15,1 C 91 % 0,0 l/m 0,2 km/h (0 Bft) N 360 13,6 C 15,0 C 0,0 km/h (0 Bft)
25.07.2012 21:35 15,1 C 91 % 0,0 l/m 0,2 km/h (0 Bft) S 180 13,6 C 14,9 C 0,0 km/h (0 Bft)
25.07.2012 21:40 15,1 C 91 % 0,0 l/m 0,2 km/h (0 Bft) N 360 13,6 C 14,9 C 0,0 km/h (0 Bft)
25.07.2012 21:45 15,1 C 91 % 0,0 l/m 0,0 km/h (0 Bft) W-NW 292 13,6 C 14,9 C 0,0 km/h (0 Bft)
25.07.2012 21:50 15,0 C 91 % 0,0 l/m 0,2 km/h (0 Bft) N-NO 22 13,5 C 14,9 C 0,0 km/h (0 Bft)
25.07.2012 21:55 15,0 C 92 % 0,0 l/m 0,3 km/h (0 Bft) N 360 13,7 C 14,9 C 2,9 km/h (1 Bft)
25.07.2012 22:00 15,0 C 92 % 0,0 l/m 0,3 km/h (0 Bft) O-SO 112 13,7 C 14,9 C 0,0 km/h (0 Bft)
25.07.2012 22:05 15,0 C 92 % 0,0 l/m 0,5 km/h (0 Bft) N 360 13,7 C 14,9 C 0,0 km/h (0 Bft)
25.07.2012 22:10 15,0 C 92 % 0,0 l/m 0,2 km/h (0 Bft) S 180 13,7 C 14,9 C 0,0 km/h (0 Bft)
25.07.2012 22:15 14,9 C 92 % 0,0 l/m 0,0 km/h (0 Bft) W 270 13,6 C 14,9 C 0,0 km/h (0 Bft)
25.07.2012 22:20 15,0 C 92 % 0,0 l/m 0,0 km/h (0 Bft) O-SO 112 13,7 C 14,9 C 0,0 km/h (0 Bft)
25.07.2012 22:25 15,1 C 92 % 0,0 l/m 0,2 km/h (0 Bft) S-SO 157 13,8 C 14,9 C 1,9 km/h (1 Bft)
25.07.2012 22:30 15,1 C 92 % 0,0 l/m 0,2 km/h (0 Bft) O 90 13,8 C 14,9 C 0,0 km/h (0 Bft)
25.07.2012 22:35 15,0 C 92 % 0,0 l/m 0,2 km/h (0 Bft) S 180 13,7 C 15,0 C 0,0 km/h (0 Bft)
25.07.2012 22:40 15,0 C 92 % 0,0 l/m 0,0 km/h (0 Bft) NO 45 13,7 C 15,0 C 0,0 km/h (0 Bft)
25.07.2012 22:45 15,0 C 92 % 0,0 l/m 0,0 km/h (0 Bft) N 360 13,7 C 15,0 C 0,0 km/h (0 Bft)
25.07.2012 22:50 15,0 C 92 % 0,0 l/m 0,0 km/h (0 Bft) S 180 13,7 C 15,0 C 0,0 km/h (0 Bft)
25.07.2012 22:55 15,0 C 92 % 0,0 l/m 0,0 km/h (0 Bft) N 360 13,7 C 15,0 C 0,0 km/h (0 Bft)
25.07.2012 23:00 15,0 C 92 % 0,0 l/m 0,0 km/h (0 Bft) W-SW 247 13,7 C 15,0 C 0,0 km/h (0 Bft)
25.07.2012 23:05 14,9 C 92 % 0,0 l/m 0,0 km/h (0 Bft) NW 315 13,6 C 14,9 C 0,0 km/h (0 Bft)
25.07.2012 23:10 14,9 C 92 % 0,0 l/m 0,0 km/h (0 Bft) O 90 13,6 C 14,9 C 0,0 km/h (0 Bft)
25.07.2012 23:15 14,7 C 92 % 0,0 l/m 0,0 km/h (0 Bft) W-NW 292 13,4 C 14,8 C 0,0 km/h (0 Bft)
25.07.2012 23:20 14,6 C 92 % 0,0 l/m 0,0 km/h (0 Bft) N-NO 22 13,3 C 14,7 C 0,0 km/h (0 Bft)
25.07.2012 23:25 14,5 C 92 % 0,0 l/m 0,0 km/h (0 Bft) S 180 13,2 C 14,7 C 0,0 km/h (0 Bft)
25.07.2012 23:30 14,5 C 92 % 0,0 l/m 0,2 km/h (0 Bft) W-SW 247 13,2 C 14,7 C 0,0 km/h (0 Bft)
25.07.2012 23:35 14,5 C 92 % 0,0 l/m 0,2 km/h (0 Bft) N-NO 22 13,2 C 14,8 C 0,0 km/h (0 Bft)
25.07.2012 23:40 14,4 C 92 % 0,0 l/m 0,0 km/h (0 Bft) S-SO 157 13,1 C 14,8 C 0,0 km/h (0 Bft)
25.07.2012 23:45 14,5 C 92 % 0,0 l/m 0,2 km/h (0 Bft) SO 135 13,2 C 14,7 C 0,0 km/h (0 Bft)
25.07.2012 23:50 14,4 C 92 % 0,0 l/m 0,2 km/h (0 Bft) S 180 13,1 C 14,8 C 0,0 km/h (0 Bft)
25.07.2012 23:55 14,3 C 92 % 0,0 l/m 0,2 km/h (0 Bft) S 180 13,0 C 14,6 C 0,0 km/h (0 Bft)
_ Min-Zeit 05:40 12:25 - 23:40 - - 05:40 05:10 23:55
Minimum _ 13,8 C 64 % - 0,0 km/h (0 Bft) - - 11,5 C 13,5 C 0,0 km/h (0 Bft)
_ Max-Zeit 12:20 23:55 20:15 11:15 - - 09:10 12:25 09:15
Maximum _ 23,3 C 92 % 0,7 l/m 5,6 km/h
SO (1 Bft)
- - 17,3 C 24,2 C 10,9 km/h
SO (2 Bft)
Durchschnitt _ 17,7 C 81 % #0,7 l/m 1,1 km/h (1 Bft) SO - 14,4 C 17,9 C 1,5 km/h (1 Bft)